Doutor Ulysses, Brazil
Current Conditions -  °F | °C
As of 6:00 PM on Friday 28 Nov 2014 (Local Time) from SBBI Reporting Station
Broken Clouds Broken Clouds  
Wind Chill: 70°   Ceiling: 4600
Heat Index: 70°   Visibility: 6mi
Dew Point: 61°   Wind: 14mph
Humidity: 73%   Direction: 120°ESE
Pressure: 30.09"   Gusts: NA
Location:  24.57°S, 49.42°W
Report Text: SBBI 282000Z 12012KT 9999 FEW013 SCT015 BKN046 21/16 Q1019
Loading
Personal Weather Stations






























Interactive Weather Map New forecast layout! Learn more

10-Day Weather Forecast

Advertisements
Track Severe Weather on mobile